Terminal Aerodrome Forecast
Issued by NWS Wichita, KS

Home | Current Version | Previous Version | Graphics & Text | Print | Product List | Glossary On
Versions: 1 2 3 4 5 6 7 8 9 10 11 12 13 14 15 16 17
000
FTUS43 KICT 020300 AAA
TAFICT
TAF AMD
KICT 020326Z 0203/0224 04011KT P6SM VCTS SCT030CB BKN050
     FM020800 VRB03KT P6SM VCTS BKN070CB
     FM021100 08006KT 5SM BR SCT150
     FM021400 12007KT P6SM SCT150=

USA.gov is the U.S. government's official web portal to all federal, state and local government web resources and services.